sensor_id;sensor_type;location;lat;lon;timestamp;temperature;humidity
22145;DHT22;11238;48.730;11.566;2023-03-01T00:01:28;1.70;96.30
22145;DHT22;11238;48.730;11.566;2023-03-01T00:04:15;1.60;96.30
22145;DHT22;11238;48.730;11.566;2023-03-01T00:06:42;1.60;96.30
22145;DHT22;11238;48.730;11.566;2023-03-01T00:09:32;1.60;96.30
22145;DHT22;11238;48.730;11.566;2023-03-01T00:11:58;1.60;96.40
22145;DHT22;11238;48.730;11.566;2023-03-01T00:14:24;1.60;96.50
22145;DHT22;11238;48.730;11.566;2023-03-01T00:16:50;1.60;96.40
22145;DHT22;11238;48.730;11.566;2023-03-01T00:19:18;1.50;96.50
22145;DHT22;11238;48.730;11.566;2023-03-01T00:21:44;1.50;96.60
22145;DHT22;11238;48.730;11.566;2023-03-01T00:24:10;1.50;96.80
22145;DHT22;11238;48.730;11.566;2023-03-01T00:26:36;1.40;96.80
22145;DHT22;11238;48.730;11.566;2023-03-01T00:29:02;1.40;96.80
22145;DHT22;11238;48.730;11.566;2023-03-01T00:31:31;1.50;96.90
22145;DHT22;11238;48.730;11.566;2023-03-01T00:34:02;1.50;96.90
22145;DHT22;11238;48.730;11.566;2023-03-01T00:36:32;1.40;96.90
22145;DHT22;11238;48.730;11.566;2023-03-01T00:38:59;1.50;97.00
22145;DHT22;11238;48.730;11.566;2023-03-01T00:41:25;1.40;97.10
22145;DHT22;11238;48.730;11.566;2023-03-01T00:43:55;1.40;97.00
22145;DHT22;11238;48.730;11.566;2023-03-01T00:46:23;1.40;97.10
22145;DHT22;11238;48.730;11.566;2023-03-01T00:48:50;1.40;97.20
22145;DHT22;11238;48.730;11.566;2023-03-01T00:51:25;1.40;97.20
22145;DHT22;11238;48.730;11.566;2023-03-01T00:53:54;1.40;97.30
22145;DHT22;11238;48.730;11.566;2023-03-01T00:56:20;1.40;97.20
22145;DHT22;11238;48.730;11.566;2023-03-01T00:58:46;1.40;97.20
22145;DHT22;11238;48.730;11.566;2023-03-01T01:01:22;1.30;97.40
22145;DHT22;11238;48.730;11.566;2023-03-01T01:03:55;1.40;97.50
22145;DHT22;11238;48.730;11.566;2023-03-01T01:06:33;1.30;97.50
22145;DHT22;11238;48.730;11.566;2023-03-01T01:09:00;1.30;97.50
22145;DHT22;11238;48.730;11.566;2023-03-01T01:11:28;1.20;97.60
22145;DHT22;11238;48.730;11.566;2023-03-01T01:13:55;1.20;97.90
22145;DHT22;11238;48.730;11.566;2023-03-01T01:16:23;1.20;97.70
22145;DHT22;11238;48.730;11.566;2023-03-01T01:18:51;1.20;97.80
22145;DHT22;11238;48.730;11.566;2023-03-01T01:21:18;1.20;97.90
22145;DHT22;11238;48.730;11.566;2023-03-01T01:23:45;1.20;98.10
22145;DHT22;11238;48.730;11.566;2023-03-01T01:26:15;1.10;98.30
22145;DHT22;11238;48.730;11.566;2023-03-01T01:28:41;1.10;98.40
22145;DHT22;11238;48.730;11.566;2023-03-01T01:31:07;1.10;98.40
22145;DHT22;11238;48.730;11.566;2023-03-01T01:33:34;1.10;98.50
22145;DHT22;11238;48.730;11.566;2023-03-01T01:36:00;1.10;98.50
22145;DHT22;11238;48.730;11.566;2023-03-01T01:38:26;1.00;98.60
22145;DHT22;11238;48.730;11.566;2023-03-01T01:40:52;1.00;98.70
22145;DHT22;11238;48.730;11.566;2023-03-01T01:43:26;1.00;98.70
22145;DHT22;11238;48.730;11.566;2023-03-01T01:45:56;1.00;98.90
22145;DHT22;11238;48.730;11.566;2023-03-01T01:48:26;1.00;99.10
22145;DHT22;11238;48.730;11.566;2023-03-01T01:51:08;1.00;98.90
22145;DHT22;11238;48.730;11.566;2023-03-01T01:53:35;1.00;98.90
22145;DHT22;11238;48.730;11.566;2023-03-01T01:56:03;1.10;98.90
22145;DHT22;11238;48.730;11.566;2023-03-01T01:58:31;1.10;98.80
22145;DHT22;11238;48.730;11.566;2023-03-01T02:00:57;1.10;98.70
22145;DHT22;11238;48.730;11.566;2023-03-01T02:03:26;1.00;98.50
22145;DHT22;11238;48.730;11.566;2023-03-01T02:06:06;1.00;98.50
22145;DHT22;11238;48.730;11.566;2023-03-01T02:08:37;1.00;98.60
22145;DHT22;11238;48.730;11.566;2023-03-01T02:11:05;1.00;98.50
22145;DHT22;11238;48.730;11.566;2023-03-01T02:13:32;1.00;98.40
22145;DHT22;11238;48.730;11.566;2023-03-01T02:15:58;1.00;98.30
22145;DHT22;11238;48.730;11.566;2023-03-01T02:18:25;1.00;98.30
22145;DHT22;11238;48.730;11.566;2023-03-01T02:23:27;1.00;98.70
22145;DHT22;11238;48.730;11.566;2023-03-01T02:26:18;1.00;98.40
22145;DHT22;11238;48.730;11.566;2023-03-01T02:28:46;1.00;98.50
22145;DHT22;11238;48.730;11.566;2023-03-01T02:31:19;1.00;98.40
22145;DHT22;11238;48.730;11.566;2023-03-01T02:34:05;0.90;98.30
22145;DHT22;11238;48.730;11.566;2023-03-01T02:36:36;0.90;98.50
22145;DHT22;11238;48.730;11.566;2023-03-01T02:39:05;0.90;98.50
22145;DHT22;11238;48.730;11.566;2023-03-01T02:41:35;0.90;98.40
22145;DHT22;11238;48.730;11.566;2023-03-01T02:44:03;0.80;98.40
22145;DHT22;11238;48.730;11.566;2023-03-01T02:46:29;0.80;98.60
22145;DHT22;11238;48.730;11.566;2023-03-01T02:48:57;0.80;98.60
22145;DHT22;11238;48.730;11.566;2023-03-01T02:56:56;0.70;98.80
22145;DHT22;11238;48.730;11.566;2023-03-01T02:59:27;0.70;98.90
22145;DHT22;11238;48.730;11.566;2023-03-01T03:01:54;0.60;99.10
22145;DHT22;11238;48.730;11.566;2023-03-01T03:04:20;0.50;99.10
22145;DHT22;11238;48.730;11.566;2023-03-01T03:06:49;0.50;99.20
22145;DHT22;11238;48.730;11.566;2023-03-01T03:09:16;0.40;99.40
22145;DHT22;11238;48.730;11.566;2023-03-01T03:11:43;0.50;99.40
22145;DHT22;11238;48.730;11.566;2023-03-01T03:14:11;0.40;99.50
22145;DHT22;11238;48.730;11.566;2023-03-01T03:16:49;0.50;99.50
22145;DHT22;11238;48.730;11.566;2023-03-01T03:19:17;0.40;99.50
22145;DHT22;11238;48.730;11.566;2023-03-01T03:21:44;0.50;99.90
22145;DHT22;11238;48.730;11.566;2023-03-01T03:24:10;0.40;99.60
22145;DHT22;11238;48.730;11.566;2023-03-01T03:26:36;0.40;99.70
22145;DHT22;11238;48.730;11.566;2023-03-01T03:29:02;0.40;99.60
22145;DHT22;11238;48.730;11.566;2023-03-01T03:31:28;0.40;99.80
22145;DHT22;11238;48.730;11.566;2023-03-01T03:33:54;0.30;99.90
22145;DHT22;11238;48.730;11.566;2023-03-01T03:36:22;0.30;99.70
22145;DHT22;11238;48.730;11.566;2023-03-01T03:38:49;0.30;99.90
22145;DHT22;11238;48.730;11.566;2023-03-01T03:41:15;0.30;99.90
22145;DHT22;11238;48.730;11.566;2023-03-01T03:43:42;0.20;99.90
22145;DHT22;11238;48.730;11.566;2023-03-01T03:46:10;0.20;99.90
22145;DHT22;11238;48.730;11.566;2023-03-01T03:48:41;0.20;99.90
22145;DHT22;11238;48.730;11.566;2023-03-01T03:51:11;0.10;99.90
22145;DHT22;11238;48.730;11.566;2023-03-01T03:53:37;0.10;99.90
22145;DHT22;11238;48.730;11.566;2023-03-01T03:56:07;0.00;99.90
22145;DHT22;11238;48.730;11.566;2023-03-01T03:58:33;0.10;99.90
22145;DHT22;11238;48.730;11.566;2023-03-01T04:00:59;0.00;99.90
22145;DHT22;11238;48.730;11.566;2023-03-01T04:03:27;0.10;99.90
22145;DHT22;11238;48.730;11.566;2023-03-01T04:05:53;0.00;99.90
22145;DHT22;11238;48.730;11.566;2023-03-01T04:08:20;0.00;99.90
22145;DHT22;11238;48.730;11.566;2023-03-01T04:10:50;-0.10;99.90
22145;DHT22;11238;48.730;11.566;2023-03-01T04:13:20;-0.10;99.90
22145;DHT22;11238;48.730;11.566;2023-03-01T04:15:50;-0.10;99.90
22145;DHT22;11238;48.730;11.566;2023-03-01T04:18:19;-0.10;99.90
22145;DHT22;11238;48.730;11.566;2023-03-01T04:20:45;-0.20;99.90
22145;DHT22;11238;48.730;11.566;2023-03-01T04:23:17;-0.20;99.90
22145;DHT22;11238;48.730;11.566;2023-03-01T04:25:54;-0.20;99.90
22145;DHT22;11238;48.730;11.566;2023-03-01T04:28:22;-0.20;99.90
22145;DHT22;11238;48.730;11.566;2023-03-01T04:30:54;-0.30;99.90
22145;DHT22;11238;48.730;11.566;2023-03-01T04:36:16;-0.30;99.90
22145;DHT22;11238;48.730;11.566;2023-03-01T04:38:43;-0.30;99.90
22145;DHT22;11238;48.730;11.566;2023-03-01T04:41:18;-0.40;99.90
22145;DHT22;11238;48.730;11.566;2023-03-01T04:43:44;-0.30;99.90
22145;DHT22;11238;48.730;11.566;2023-03-01T04:46:15;-0.40;99.90
22145;DHT22;11238;48.730;11.566;2023-03-01T04:48:43;-0.40;99.90
22145;DHT22;11238;48.730;11.566;2023-03-01T04:51:09;-0.40;99.90
22145;DHT22;11238;48.730;11.566;2023-03-01T04:53:57;-0.40;99.90
22145;DHT22;11238;48.730;11.566;2023-03-01T04:56:23;-0.50;99.90
22145;DHT22;11238;48.730;11.566;2023-03-01T04:58:49;-0.50;99.90
22145;DHT22;11238;48.730;11.566;2023-03-01T05:01:18;-0.50;99.90
22145;DHT22;11238;48.730;11.566;2023-03-01T05:03:50;-0.60;99.90
22145;DHT22;11238;48.730;11.566;2023-03-01T05:06:18;-0.50;99.90
22145;DHT22;11238;48.730;11.566;2023-03-01T05:08:44;-0.60;99.90
22145;DHT22;11238;48.730;11.566;2023-03-01T05:11:11;-0.50;99.90
22145;DHT22;11238;48.730;11.566;2023-03-01T05:13:38;-0.50;99.90
22145;DHT22;11238;48.730;11.566;2023-03-01T05:16:06;-0.50;99.90
22145;DHT22;11238;48.730;11.566;2023-03-01T05:18:54;-0.50;99.90
22145;DHT22;11238;48.730;11.566;2023-03-01T05:21:21;-0.60;99.90
22145;DHT22;11238;48.730;11.566;2023-03-01T05:23:47;-0.70;99.90
22145;DHT22;11238;48.730;11.566;2023-03-01T05:26:14;-0.70;99.90
22145;DHT22;11238;48.730;11.566;2023-03-01T05:28:41;-0.80;99.90
22145;DHT22;11238;48.730;11.566;2023-03-01T05:31:25;-0.80;99.90
22145;DHT22;11238;48.730;11.566;2023-03-01T05:33:51;-0.90;99.90
22145;DHT22;11238;48.730;11.566;2023-03-01T05:36:17;-0.90;99.90
22145;DHT22;11238;48.730;11.566;2023-03-01T05:38:43;-1.00;99.90
22145;DHT22;11238;48.730;11.566;2023-03-01T05:41:14;-1.00;99.90
22145;DHT22;11238;48.730;11.566;2023-03-01T05:43:42;-1.10;99.90
22145;DHT22;11238;48.730;11.566;2023-03-01T05:46:10;-1.10;99.90
22145;DHT22;11238;48.730;11.566;2023-03-01T05:49:00;-1.10;99.90
22145;DHT22;11238;48.730;11.566;2023-03-01T05:51:49;-1.20;99.90
22145;DHT22;11238;48.730;11.566;2023-03-01T05:54:18;-1.20;99.90
22145;DHT22;11238;48.730;11.566;2023-03-01T05:56:44;-1.20;99.90
22145;DHT22;11238;48.730;11.566;2023-03-01T05:59:10;-1.20;99.90
22145;DHT22;11238;48.730;11.566;2023-03-01T06:01:37;-1.20;99.90
22145;DHT22;11238;48.730;11.566;2023-03-01T06:04:04;-1.10;99.90
22145;DHT22;11238;48.730;11.566;2023-03-01T06:06:34;-1.10;99.90
22145;DHT22;11238;48.730;11.566;2023-03-01T06:09:00;-1.10;99.90
22145;DHT22;11238;48.730;11.566;2023-03-01T06:11:29;-1.20;99.90
22145;DHT22;11238;48.730;11.566;2023-03-01T06:13:55;-1.20;99.90
22145;DHT22;11238;48.730;11.566;2023-03-01T06:16:20;-1.20;99.90
22145;DHT22;11238;48.730;11.566;2023-03-01T06:18:47;-1.20;99.90
22145;DHT22;11238;48.730;11.566;2023-03-01T06:21:13;-1.10;99.90
22145;DHT22;11238;48.730;11.566;2023-03-01T06:23:39;-1.10;99.90
22145;DHT22;11238;48.730;11.566;2023-03-01T06:26:08;-1.00;99.90
22145;DHT22;11238;48.730;11.566;2023-03-01T06:28:35;-1.00;99.90
22145;DHT22;11238;48.730;11.566;2023-03-01T06:31:01;-0.90;99.90
22145;DHT22;11238;48.730;11.566;2023-03-01T06:33:27;-0.90;99.90
22145;DHT22;11238;48.730;11.566;2023-03-01T06:35:56;-0.80;99.90
22145;DHT22;11238;48.730;11.566;2023-03-01T06:38:23;-0.90;99.90
22145;DHT22;11238;48.730;11.566;2023-03-01T06:40:54;-0.90;99.90
22145;DHT22;11238;48.730;11.566;2023-03-01T06:43:21;-0.80;99.90
22145;DHT22;11238;48.730;11.566;2023-03-01T06:45:47;-0.80;99.90
22145;DHT22;11238;48.730;11.566;2023-03-01T06:48:13;-0.80;99.90
22145;DHT22;11238;48.730;11.566;2023-03-01T06:50:38;-0.90;99.90
22145;DHT22;11238;48.730;11.566;2023-03-01T06:53:04;-0.90;99.90
22145;DHT22;11238;48.730;11.566;2023-03-01T06:55:30;-0.80;99.90
22145;DHT22;11238;48.730;11.566;2023-03-01T06:57:58;-0.80;99.90
22145;DHT22;11238;48.730;11.566;2023-03-01T07:00:25;-0.90;99.90
22145;DHT22;11238;48.730;11.566;2023-03-01T07:02:52;-0.80;99.90
22145;DHT22;11238;48.730;11.566;2023-03-01T07:05:18;-0.70;99.90
22145;DHT22;11238;48.730;11.566;2023-03-01T07:07:45;-0.70;99.90
22145;DHT22;11238;48.730;11.566;2023-03-01T07:10:11;-0.60;99.90
22145;DHT22;11238;48.730;11.566;2023-03-01T07:12:37;-0.60;99.90
22145;DHT22;11238;48.730;11.566;2023-03-01T07:15:04;-0.50;99.90
22145;DHT22;11238;48.730;11.566;2023-03-01T07:17:30;-0.50;99.90
22145;DHT22;11238;48.730;11.566;2023-03-01T07:19:56;-0.40;99.90
22145;DHT22;11238;48.730;11.566;2023-03-01T07:22:23;-0.40;99.90
22145;DHT22;11238;48.730;11.566;2023-03-01T07:24:49;-0.30;99.90
22145;DHT22;11238;48.730;11.566;2023-03-01T07:27:14;-0.30;99.90
22145;DHT22;11238;48.730;11.566;2023-03-01T07:29:40;-0.30;99.90
22145;DHT22;11238;48.730;11.566;2023-03-01T07:32:06;-0.20;99.90
22145;DHT22;11238;48.730;11.566;2023-03-01T07:34:32;-0.20;99.90
22145;DHT22;11238;48.730;11.566;2023-03-01T07:36:59;-0.10;99.90
22145;DHT22;11238;48.730;11.566;2023-03-01T07:39:47;0.00;99.90
22145;DHT22;11238;48.730;11.566;2023-03-01T07:42:15;0.00;99.90
22145;DHT22;11238;48.730;11.566;2023-03-01T07:44:40;0.10;99.90
22145;DHT22;11238;48.730;11.566;2023-03-01T07:47:24;0.10;99.90
22145;DHT22;11238;48.730;11.566;2023-03-01T07:49:50;0.20;99.90
22145;DHT22;11238;48.730;11.566;2023-03-01T07:52:15;0.30;99.90
22145;DHT22;11238;48.730;11.566;2023-03-01T07:54:45;0.40;99.90
22145;DHT22;11238;48.730;11.566;2023-03-01T07:57:11;0.50;99.90
22145;DHT22;11238;48.730;11.566;2023-03-01T07:59:36;0.50;99.90
22145;DHT22;11238;48.730;11.566;2023-03-01T08:02:24;0.60;99.90
22145;DHT22;11238;48.730;11.566;2023-03-01T08:05:12;0.60;99.90
22145;DHT22;11238;48.730;11.566;2023-03-01T08:07:39;0.70;99.90
22145;DHT22;11238;48.730;11.566;2023-03-01T08:10:05;0.70;99.90
22145;DHT22;11238;48.730;11.566;2023-03-01T08:12:31;0.80;99.90
22145;DHT22;11238;48.730;11.566;2023-03-01T08:14:57;0.90;99.90
22145;DHT22;11238;48.730;11.566;2023-03-01T08:17:25;1.00;99.90
22145;DHT22;11238;48.730;11.566;2023-03-01T08:19:51;1.00;99.90
22145;DHT22;11238;48.730;11.566;2023-03-01T08:22:16;1.10;99.90
22145;DHT22;11238;48.730;11.566;2023-03-01T08:24:42;1.20;99.80
22145;DHT22;11238;48.730;11.566;2023-03-01T08:27:08;1.30;99.50
22145;DHT22;11238;48.730;11.566;2023-03-01T08:29:36;1.40;99.70
22145;DHT22;11238;48.730;11.566;2023-03-01T08:32:20;1.50;98.90
22145;DHT22;11238;48.730;11.566;2023-03-01T08:34:47;1.60;98.50
22145;DHT22;11238;48.730;11.566;2023-03-01T08:37:13;1.60;98.40
22145;DHT22;11238;48.730;11.566;2023-03-01T08:39:57;1.70;98.40
22145;DHT22;11238;48.730;11.566;2023-03-01T08:42:44;1.80;97.60
22145;DHT22;11238;48.730;11.566;2023-03-01T08:45:11;1.90;97.70
22145;DHT22;11238;48.730;11.566;2023-03-01T08:47:38;2.00;97.60
22145;DHT22;11238;48.730;11.566;2023-03-01T08:50:04;2.10;97.60
22145;DHT22;11238;48.730;11.566;2023-03-01T08:52:32;2.20;97.10
22145;DHT22;11238;48.730;11.566;2023-03-01T08:54:58;2.30;96.90
22145;DHT22;11238;48.730;11.566;2023-03-01T08:57:24;2.40;96.90
22145;DHT22;11238;48.730;11.566;2023-03-01T08:59:50;2.60;96.70
22145;DHT22;11238;48.730;11.566;2023-03-01T09:02:17;2.70;96.10
22145;DHT22;11238;48.730;11.566;2023-03-01T09:04:44;2.80;96.10
22145;DHT22;11238;48.730;11.566;2023-03-01T09:07:11;3.00;95.90
22145;DHT22;11238;48.730;11.566;2023-03-01T09:09:37;3.10;95.30
22145;DHT22;11238;48.730;11.566;2023-03-01T09:12:03;3.20;94.50
22145;DHT22;11238;48.730;11.566;2023-03-01T09:14:30;3.30;94.10
22145;DHT22;11238;48.730;11.566;2023-03-01T09:16:56;3.40;94.10
22145;DHT22;11238;48.730;11.566;2023-03-01T09:19:22;3.50;94.30
22145;DHT22;11238;48.730;11.566;2023-03-01T09:21:49;3.60;93.40
22145;DHT22;11238;48.730;11.566;2023-03-01T09:24:19;3.70;93.20
22145;DHT22;11238;48.730;11.566;2023-03-01T09:26:45;3.90;92.80
22145;DHT22;11238;48.730;11.566;2023-03-01T09:29:12;3.90;92.50
22145;DHT22;11238;48.730;11.566;2023-03-01T09:31:38;4.00;92.10
22145;DHT22;11238;48.730;11.566;2023-03-01T09:34:05;4.20;92.40
22145;DHT22;11238;48.730;11.566;2023-03-01T09:36:31;4.30;91.70
22145;DHT22;11238;48.730;11.566;2023-03-01T09:38:58;4.40;91.50
22145;DHT22;11238;48.730;11.566;2023-03-01T09:41:44;4.60;91.10
22145;DHT22;11238;48.730;11.566;2023-03-01T09:46:50;4.80;90.50
22145;DHT22;11238;48.730;11.566;2023-03-01T09:49:29;4.90;89.60
22145;DHT22;11238;48.730;11.566;2023-03-01T09:52:03;5.10;90.10
22145;DHT22;11238;48.730;11.566;2023-03-01T09:54:32;5.20;87.10
22145;DHT22;11238;48.730;11.566;2023-03-01T09:57:12;5.30;86.70
22145;DHT22;11238;48.730;11.566;2023-03-01T10:00:18;5.40;87.20
22145;DHT22;11238;48.730;11.566;2023-03-01T10:03:01;5.40;86.50
22145;DHT22;11238;48.730;11.566;2023-03-01T10:05:43;5.50;86.60
22145;DHT22;11238;48.730;11.566;2023-03-01T10:08:42;5.60;84.20
22145;DHT22;11238;48.730;11.566;2023-03-01T10:11:21;5.70;84.70
22145;DHT22;11238;48.730;11.566;2023-03-01T10:19:11;6.10;83.50
22145;DHT22;11238;48.730;11.566;2023-03-01T10:21:43;6.30;83.30
22145;DHT22;11238;48.730;11.566;2023-03-01T10:24:15;6.50;82.90
22145;DHT22;11238;48.730;11.566;2023-03-01T10:27:07;6.50;82.00
22145;DHT22;11238;48.730;11.566;2023-03-01T10:29:50;6.50;83.20
22145;DHT22;11238;48.730;11.566;2023-03-01T10:32:22;6.70;82.80
22145;DHT22;11238;48.730;11.566;2023-03-01T10:34:51;6.80;82.10
22145;DHT22;11238;48.730;11.566;2023-03-01T10:37:18;7.00;82.90
22145;DHT22;11238;48.730;11.566;2023-03-01T10:40:06;7.20;80.30
22145;DHT22;11238;48.730;11.566;2023-03-01T10:43:02;7.30;80.60
22145;DHT22;11238;48.730;11.566;2023-03-01T10:45:31;7.30;79.50
22145;DHT22;11238;48.730;11.566;2023-03-01T10:50:47;7.50;78.10
22145;DHT22;11238;48.730;11.566;2023-03-01T10:53:22;7.50;78.70
22145;DHT22;11238;48.730;11.566;2023-03-01T10:56:14;7.80;78.90
22145;DHT22;11238;48.730;11.566;2023-03-01T10:59:00;7.90;78.20
22145;DHT22;11238;48.730;11.566;2023-03-01T11:01:30;8.10;77.70
22145;DHT22;11238;48.730;11.566;2023-03-01T11:06:34;8.40;78.90
22145;DHT22;11238;48.730;11.566;2023-03-01T11:11:41;8.40;75.10
22145;DHT22;11238;48.730;11.566;2023-03-01T11:14:15;8.30;74.90
22145;DHT22;11238;48.730;11.566;2023-03-01T11:16:44;8.40;76.40
22145;DHT22;11238;48.730;11.566;2023-03-01T11:22:40;8.50;76.30
22145;DHT22;11238;48.730;11.566;2023-03-01T11:24:41;8.80;76.90
22145;DHT22;11238;48.730;11.566;2023-03-01T11:27:21;8.90;75.80
22145;DHT22;11238;48.730;11.566;2023-03-01T11:29:59;8.90;77.00
22145;DHT22;11238;48.730;11.566;2023-03-01T11:32:29;9.10;73.80
22145;DHT22;11238;48.730;11.566;2023-03-01T11:35:26;9.10;74.70
22145;DHT22;11238;48.730;11.566;2023-03-01T11:40:40;9.30;73.70
22145;DHT22;11238;48.730;11.566;2023-03-01T11:43:19;9.30;72.90
22145;DHT22;11238;48.730;11.566;2023-03-01T11:48:32;9.50;73.30
22145;DHT22;11238;48.730;11.566;2023-03-01T11:51:05;9.60;73.10
22145;DHT22;11238;48.730;11.566;2023-03-01T11:56:16;9.80;72.00
22145;DHT22;11238;48.730;11.566;2023-03-01T11:58:59;9.80;70.80
22145;DHT22;11238;48.730;11.566;2023-03-01T12:07:18;9.90;70.90
22145;DHT22;11238;48.730;11.566;2023-03-01T12:09:48;9.90;71.20
22145;DHT22;11238;48.730;11.566;2023-03-01T12:21:06;10.20;70.40
22145;DHT22;11238;48.730;11.566;2023-03-01T12:26:40;10.70;69.20
22145;DHT22;11238;48.730;11.566;2023-03-01T12:29:30;10.70;69.40
22145;DHT22;11238;48.730;11.566;2023-03-01T12:32:15;10.80;68.40
22145;DHT22;11238;48.730;11.566;2023-03-01T12:40:26;10.90;67.80
22145;DHT22;11238;48.730;11.566;2023-03-01T12:48:57;11.20;67.70
22145;DHT22;11238;48.730;11.566;2023-03-01T12:51:31;11.10;67.80
22145;DHT22;11238;48.730;11.566;2023-03-01T12:54:40;11.00;67.30
22145;DHT22;11238;48.730;11.566;2023-03-01T13:00:38;11.30;66.20
22145;DHT22;11238;48.730;11.566;2023-03-01T13:03:38;11.20;66.80
22145;DHT22;11238;48.730;11.566;2023-03-01T13:06:37;11.30;66.30
22145;DHT22;11238;48.730;11.566;2023-03-01T13:11:57;11.30;66.50
22145;DHT22;11238;48.730;11.566;2023-03-01T13:16:50;11.10;66.30
22145;DHT22;11238;48.730;11.566;2023-03-01T13:19:19;11.20;66.30
22145;DHT22;11238;48.730;11.566;2023-03-01T13:21:47;11.40;67.30
22145;DHT22;11238;48.730;11.566;2023-03-01T13:24:43;11.50;67.10
22145;DHT22;11238;48.730;11.566;2023-03-01T13:27:11;11.40;65.50
22145;DHT22;11238;48.730;11.566;2023-03-01T13:29:47;11.50;66.30
22145;DHT22;11238;48.730;11.566;2023-03-01T13:32:42;11.40;65.50
22145;DHT22;11238;48.730;11.566;2023-03-01T13:37:45;11.60;65.30
22145;DHT22;11238;48.730;11.566;2023-03-01T13:42:56;11.60;66.30
22145;DHT22;11238;48.730;11.566;2023-03-01T13:45:45;11.30;65.30
22145;DHT22;11238;48.730;11.566;2023-03-01T13:48:33;11.60;66.80
22145;DHT22;11238;48.730;11.566;2023-03-01T13:51:09;11.70;66.00
22145;DHT22;11238;48.730;11.566;2023-03-01T13:53:39;11.80;65.80
22145;DHT22;11238;48.730;11.566;2023-03-01T13:56:20;11.90;65.10
22145;DHT22;11238;48.730;11.566;2023-03-01T13:58:58;11.90;64.80
22145;DHT22;11238;48.730;11.566;2023-03-01T14:01:28;11.70;64.10
22145;DHT22;11238;48.730;11.566;2023-03-01T14:03:55;11.70;64.50
22145;DHT22;11238;48.730;11.566;2023-03-01T14:06:32;11.70;65.10
22145;DHT22;11238;48.730;11.566;2023-03-01T14:09:14;11.80;65.70
22145;DHT22;11238;48.730;11.566;2023-03-01T14:14:39;11.90;65.30
22145;DHT22;11238;48.730;11.566;2023-03-01T14:20:07;12.00;64.60
22145;DHT22;11238;48.730;11.566;2023-03-01T14:22:34;11.80;64.70
22145;DHT22;11238;48.730;11.566;2023-03-01T14:25:05;11.90;66.00
22145;DHT22;11238;48.730;11.566;2023-03-01T14:27:39;12.00;65.20
22145;DHT22;11238;48.730;11.566;2023-03-01T14:30:24;12.00;64.80
22145;DHT22;11238;48.730;11.566;2023-03-01T14:35:57;11.70;65.80
22145;DHT22;11238;48.730;11.566;2023-03-01T14:40:58;11.80;65.80
22145;DHT22;11238;48.730;11.566;2023-03-01T14:43:25;11.70;65.40
22145;DHT22;11238;48.730;11.566;2023-03-01T14:45:52;11.50;66.10
22145;DHT22;11238;48.730;11.566;2023-03-01T14:48:18;11.60;66.50
22145;DHT22;11238;48.730;11.566;2023-03-01T14:50:45;11.50;66.40
22145;DHT22;11238;48.730;11.566;2023-03-01T14:53:25;11.60;66.40
22145;DHT22;11238;48.730;11.566;2023-03-01T14:55:55;11.10;66.80
22145;DHT22;11238;48.730;11.566;2023-03-01T14:58:24;11.20;67.80
22145;DHT22;11238;48.730;11.566;2023-03-01T15:01:02;11.30;68.20
22145;DHT22;11238;48.730;11.566;2023-03-01T15:03:38;11.40;67.30
22145;DHT22;11238;48.730;11.566;2023-03-01T15:06:07;11.30;67.60
22145;DHT22;11238;48.730;11.566;2023-03-01T15:08:34;11.30;67.20
22145;DHT22;11238;48.730;11.566;2023-03-01T15:13:39;10.80;68.40
22145;DHT22;11238;48.730;11.566;2023-03-01T15:16:11;10.60;69.40
22145;DHT22;11238;48.730;11.566;2023-03-01T15:18:37;10.60;69.70
22145;DHT22;11238;48.730;11.566;2023-03-01T15:29:18;10.30;72.20
22145;DHT22;11238;48.730;11.566;2023-03-01T15:31:55;10.20;71.80
22145;DHT22;11238;48.730;11.566;2023-03-01T15:34:43;10.10;72.50
22145;DHT22;11238;48.730;11.566;2023-03-01T15:40:27;9.70;72.80
22145;DHT22;11238;48.730;11.566;2023-03-01T15:43:02;9.50;73.90
22145;DHT22;11238;48.730;11.566;2023-03-01T15:45:30;9.30;74.50
22145;DHT22;11238;48.730;11.566;2023-03-01T15:47:57;9.30;75.20
22145;DHT22;11238;48.730;11.566;2023-03-01T15:50:28;9.30;74.80
22145;DHT22;11238;48.730;11.566;2023-03-01T15:52:55;9.30;74.80
22145;DHT22;11238;48.730;11.566;2023-03-01T15:55:24;9.30;75.10
22145;DHT22;11238;48.730;11.566;2023-03-01T15:58:15;9.30;75.60
22145;DHT22;11238;48.730;11.566;2023-03-01T16:00:43;9.40;76.10
22145;DHT22;11238;48.730;11.566;2023-03-01T16:03:11;9.20;75.80
22145;DHT22;11238;48.730;11.566;2023-03-01T16:05:37;9.20;76.00
22145;DHT22;11238;48.730;11.566;2023-03-01T16:08:06;9.00;76.10
22145;DHT22;11238;48.730;11.566;2023-03-01T16:10:33;8.90;77.20
22145;DHT22;11238;48.730;11.566;2023-03-01T16:12:59;8.70;77.80
22145;DHT22;11238;48.730;11.566;2023-03-01T16:15:29;8.60;78.60
22145;DHT22;11238;48.730;11.566;2023-03-01T16:17:55;8.40;79.30
22145;DHT22;11238;48.730;11.566;2023-03-01T16:20:22;8.30;79.90
22145;DHT22;11238;48.730;11.566;2023-03-01T16:22:48;8.30;80.00
22145;DHT22;11238;48.730;11.566;2023-03-01T16:25:17;8.30;80.30
22145;DHT22;11238;48.730;11.566;2023-03-01T16:27:45;8.20;80.60
22145;DHT22;11238;48.730;11.566;2023-03-01T16:30:13;8.20;80.60
22145;DHT22;11238;48.730;11.566;2023-03-01T16:32:40;8.10;80.90
22145;DHT22;11238;48.730;11.566;2023-03-01T16:35:07;8.10;80.70
22145;DHT22;11238;48.730;11.566;2023-03-01T16:37:35;8.10;80.90
22145;DHT22;11238;48.730;11.566;2023-03-01T16:40:03;7.90;81.30
22145;DHT22;11238;48.730;11.566;2023-03-01T16:42:33;8.00;81.90
22145;DHT22;11238;48.730;11.566;2023-03-01T16:45:05;7.90;81.80
22145;DHT22;11238;48.730;11.566;2023-03-01T16:47:33;7.90;82.10
22145;DHT22;11238;48.730;11.566;2023-03-01T16:49:59;7.80;82.20
22145;DHT22;11238;48.730;11.566;2023-03-01T16:52:24;7.80;82.40
22145;DHT22;11238;48.730;11.566;2023-03-01T16:54:50;7.70;82.60
22145;DHT22;11238;48.730;11.566;2023-03-01T16:57:16;7.60;82.90
22145;DHT22;11238;48.730;11.566;2023-03-01T16:59:42;7.50;83.30
22145;DHT22;11238;48.730;11.566;2023-03-01T17:02:12;7.30;83.40
22145;DHT22;11238;48.730;11.566;2023-03-01T17:04:39;7.20;83.90
22145;DHT22;11238;48.730;11.566;2023-03-01T17:07:25;7.10;84.30
22145;DHT22;11238;48.730;11.566;2023-03-01T17:09:51;7.00;84.50
22145;DHT22;11238;48.730;11.566;2023-03-01T17:12:17;6.90;85.10
22145;DHT22;11238;48.730;11.566;2023-03-01T17:14:43;6.80;85.30
22145;DHT22;11238;48.730;11.566;2023-03-01T17:17:10;6.80;85.50
22145;DHT22;11238;48.730;11.566;2023-03-01T17:19:36;6.60;85.70
22145;DHT22;11238;48.730;11.566;2023-03-01T17:22:06;6.60;86.30
22145;DHT22;11238;48.730;11.566;2023-03-01T17:24:34;6.50;86.60
22145;DHT22;11238;48.730;11.566;2023-03-01T17:26:59;6.50;86.80
22145;DHT22;11238;48.730;11.566;2023-03-01T17:29:25;6.40;87.00
22145;DHT22;11238;48.730;11.566;2023-03-01T17:31:51;6.40;87.50
22145;DHT22;11238;48.730;11.566;2023-03-01T17:34:20;6.40;87.50